createdAt,value
2023-02-06T00:01:52.086Z,101523.13
2023-02-06T00:04:20.879Z,101526.53
2023-02-06T00:06:49.771Z,101523.16
2023-02-06T00:09:18.390Z,101526.59
2023-02-06T00:11:46.981Z,101532.53
2023-02-06T00:14:15.708Z,101533.38
2023-02-06T00:16:44.479Z,101525.75
2023-02-06T00:19:14.722Z,101526.59
2023-02-06T00:21:43.994Z,101530.00
2023-02-06T00:24:12.770Z,101531.69
2023-02-06T00:26:41.615Z,101525.81
2023-02-06T00:29:10.315Z,101535.13
2023-02-06T00:31:39.176Z,101546.19
2023-02-06T00:34:08.558Z,101541.97
2023-02-06T00:36:38.604Z,101553.00
2023-02-06T00:39:07.510Z,101558.13
2023-02-06T00:41:36.678Z,101547.09
2023-02-06T00:44:05.441Z,101545.44
2023-02-06T00:46:34.100Z,101542.94
2023-02-06T00:49:03.086Z,101559.00
2023-02-06T00:51:31.788Z,101559.00
2023-02-06T00:54:01.911Z,101557.31
2023-02-06T00:56:30.706Z,101559.88
2023-02-06T00:58:59.327Z,101554.00
2023-02-06T01:01:28.603Z,101554.03
2023-02-06T01:03:57.344Z,101556.59
2023-02-06T01:06:26.110Z,101548.16
2023-02-06T01:08:54.970Z,101562.56
2023-02-06T01:11:27.637Z,101560.88
2023-02-06T01:13:56.725Z,101559.22
2023-02-06T01:16:26.421Z,101562.59
2023-02-06T01:18:55.215Z,101560.91
2023-02-06T01:21:26.164Z,101564.31
2023-02-06T01:23:56.074Z,101570.31
2023-02-06T01:26:28.260Z,101573.69
2023-02-06T01:28:58.583Z,101584.75
2023-02-06T01:31:30.047Z,101584.75
2023-02-06T01:34:00.967Z,101589.81
2023-02-06T01:36:30.229Z,101583.03
2023-02-06T01:38:58.986Z,101590.66
2023-02-06T01:41:29.051Z,101588.13
2023-02-06T01:44:15.609Z,101584.75
2023-02-06T01:46:47.228Z,101575.50
2023-02-06T01:49:21.518Z,101569.56
2023-02-06T01:51:53.095Z,101567.91
2023-02-06T01:54:22.449Z,101578.06
2023-02-06T01:56:58.990Z,101562.88
2023-02-06T01:59:28.294Z,101572.19
2023-02-06T02:01:57.224Z,101564.56
2023-02-06T02:04:29.333Z,101571.34
2023-02-06T02:07:08.032Z,101550.16
2023-02-06T02:09:36.728Z,101552.72
2023-02-06T02:12:07.861Z,101554.41
2023-02-06T02:14:37.272Z,101551.00
2023-02-06T02:17:24.051Z,101557.75
2023-02-06T02:20:56.069Z,101554.34
2023-02-06T02:23:37.518Z,101561.16
2023-02-06T02:26:51.060Z,101557.78
2023-02-06T02:30:39.088Z,101557.00
2023-02-06T02:33:46.830Z,101562.97
2023-02-06T02:36:23.971Z,101561.34
2023-02-06T02:39:02.372Z,101559.66
2023-02-06T02:41:40.216Z,101556.31
2023-02-06T02:44:12.843Z,101560.56
2023-02-06T02:46:45.112Z,101547.88
2023-02-06T02:49:20.108Z,101547.00
2023-02-06T02:51:53.146Z,101555.50
2023-02-06T02:54:21.827Z,101555.47
2023-02-06T02:56:50.438Z,101555.47
2023-02-06T02:59:24.209Z,101565.63
2023-02-06T03:01:59.686Z,101563.97
2023-02-06T03:04:36.243Z,101558.03
2023-02-06T03:07:17.610Z,101568.22
2023-02-06T03:09:59.913Z,101551.31
2023-02-06T03:12:40.794Z,101559.78
2023-02-06T03:15:19.589Z,101562.31
2023-02-06T03:17:54.107Z,101569.06
2023-02-06T03:20:24.205Z,101560.63
2023-02-06T03:22:55.923Z,101552.19
2023-02-06T03:25:33.281Z,101549.66
2023-02-06T03:28:03.176Z,101547.13
2023-02-06T03:30:33.363Z,101539.50
2023-02-06T03:33:07.141Z,101545.41
2023-02-06T03:35:38.647Z,101548.75
2023-02-06T03:38:09.925Z,101544.56
2023-02-06T03:40:41.237Z,101544.56
2023-02-06T03:43:13.979Z,101544.56
2023-02-06T03:45:46.655Z,101547.13
2023-02-06T03:48:22.092Z,101565.72
2023-02-06T03:50:54.394Z,101566.59
2023-02-06T03:53:27.762Z,101563.19
2023-02-06T03:56:02.386Z,101558.97
2023-02-06T03:58:31.095Z,101547.97
2023-02-06T04:01:01.226Z,101559.81
2023-02-06T04:03:30.169Z,101562.34
2023-02-06T04:05:58.870Z,101557.25
2023-02-06T04:08:28.962Z,101560.66
2023-02-06T04:10:57.606Z,101558.97
2023-02-06T04:13:26.154Z,101566.59
2023-02-06T04:15:56.344Z,101564.91
2023-02-06T04:18:25.125Z,101559.84
2023-02-06T04:20:53.730Z,101565.78
2023-02-06T04:23:23.182Z,101567.44
2023-02-06T04:25:53.556Z,101563.25
2023-02-06T04:28:22.204Z,101568.31
2023-02-06T04:30:50.928Z,101563.25
2023-02-06T04:33:19.636Z,101568.34
2023-02-06T04:35:48.960Z,101570.06
2023-02-06T04:38:18.137Z,101559.91
2023-02-06T04:40:46.808Z,101558.22
2023-02-06T04:43:16.783Z,101560.78
2023-02-06T04:45:45.454Z,101553.19
2023-02-06T04:48:14.071Z,101548.13
2023-02-06T04:50:42.701Z,101552.34
2023-02-06T04:53:11.286Z,101565.00
2023-02-06T04:55:39.886Z,101556.56
2023-02-06T04:58:08.583Z,101561.66
2023-02-06T05:00:38.931Z,101562.50
2023-02-06T05:03:07.594Z,101563.34
2023-02-06T05:05:36.405Z,101557.44
2023-02-06T05:08:05.192Z,101562.50
2023-02-06T05:10:33.836Z,101569.28
2023-02-06T05:13:02.493Z,101565.91
2023-02-06T05:15:31.195Z,101569.34
2023-02-06T05:18:01.208Z,101570.16
2023-02-06T05:20:30.105Z,101575.25
2023-02-06T05:22:58.818Z,101565.94
2023-02-06T05:25:27.575Z,101579.50
2023-02-06T05:27:57.469Z,101580.31
2023-02-06T05:30:26.264Z,101581.16
2023-02-06T05:32:54.942Z,101572.72
2023-02-06T05:35:25.456Z,101564.25
2023-02-06T05:37:54.094Z,101565.09
2023-02-06T05:40:22.829Z,101565.09
2023-02-06T05:42:51.930Z,101568.47
2023-02-06T05:45:20.663Z,101571.03
2023-02-06T05:47:49.300Z,101573.56
2023-02-06T05:50:18.272Z,101577.78
2023-02-06T05:52:48.551Z,101562.63
2023-02-06T05:55:18.421Z,101563.44
2023-02-06T05:57:47.044Z,101560.94
2023-02-06T06:00:17.002Z,101568.53
2023-02-06T06:02:45.675Z,101567.69
2023-02-06T06:05:14.372Z,101565.13
2023-02-06T06:07:43.059Z,101561.72
2023-02-06T06:10:13.323Z,101560.88
2023-02-06T06:12:41.944Z,101553.31
2023-02-06T06:15:11.302Z,101558.38
2023-02-06T06:17:40.020Z,101555.00
2023-02-06T06:20:09.415Z,101547.34
2023-02-06T06:22:38.097Z,101533.81
2023-02-06T06:25:07.841Z,101532.09
2023-02-06T06:27:37.890Z,101537.16
2023-02-06T06:30:07.902Z,101543.06
2023-02-06T06:32:36.486Z,101536.28
2023-02-06T06:35:05.644Z,101552.34
2023-02-06T06:37:34.332Z,101548.94
2023-02-06T06:40:02.901Z,101551.47
2023-02-06T06:42:31.612Z,101560.75
2023-02-06T06:45:01.699Z,101559.91
2023-02-06T06:47:30.510Z,101558.22
2023-02-06T06:49:59.161Z,101565.00
2023-02-06T06:52:27.872Z,101561.59
2023-02-06T06:54:56.532Z,101566.69
2023-02-06T06:57:25.615Z,101561.63
2023-02-06T06:59:54.670Z,101567.53
2023-02-06T07:02:24.663Z,101576.84
2023-02-06T07:04:53.251Z,101576.03
2023-02-06T07:07:21.853Z,101574.31
2023-02-06T07:09:50.619Z,101585.31
2023-02-06T07:12:19.225Z,101591.28
2023-02-06T07:14:47.874Z,101587.88
2023-02-06T07:17:16.497Z,101594.69
2023-02-06T07:19:48.147Z,101587.06
2023-02-06T07:22:16.956Z,101570.13
2023-02-06T07:24:45.683Z,101574.34
2023-02-06T07:27:14.572Z,101577.69
2023-02-06T07:29:43.220Z,101576.00
2023-02-06T07:32:12.205Z,101572.63
2023-02-06T07:34:40.854Z,101575.19
2023-02-06T07:37:10.869Z,101576.88
2023-02-06T07:39:39.477Z,101567.56
2023-02-06T07:42:08.302Z,101573.50
2023-02-06T07:44:52.081Z,101581.13
2023-02-06T07:47:20.841Z,101576.00
2023-02-06T07:49:49.464Z,101574.31
2023-02-06T07:52:21.982Z,101578.56
2023-02-06T07:54:50.616Z,101570.97
2023-02-06T07:57:20.068Z,101574.31
2023-02-06T07:59:48.707Z,101581.91
2023-02-06T08:02:17.401Z,101567.50
2023-02-06T08:04:46.253Z,101568.34
2023-02-06T08:07:19.125Z,101567.47
2023-02-06T08:09:47.866Z,101568.31
2023-02-06T08:12:16.507Z,101569.13
2023-02-06T08:14:45.921Z,101564.91
2023-02-06T08:17:14.949Z,101567.41
2023-02-06T08:19:43.612Z,101575.88
2023-02-06T08:22:12.276Z,101571.63
2023-02-06T08:24:42.420Z,101569.97
2023-02-06T08:27:11.042Z,101559.81
2023-02-06T08:29:42.715Z,101564.00
2023-02-06T08:32:12.041Z,101560.59
2023-02-06T08:34:41.656Z,101569.06
2023-02-06T08:37:10.281Z,101579.22
2023-02-06T08:39:39.308Z,101575.78
2023-02-06T08:42:09.352Z,101559.72
2023-02-06T08:44:38.122Z,101552.94
2023-02-06T08:47:10.284Z,101554.63
2023-02-06T08:49:39.788Z,101553.81
2023-02-06T08:52:08.518Z,101569.88
2023-02-06T08:54:38.866Z,101560.56
2023-02-06T08:57:09.877Z,101552.94
2023-02-06T08:59:38.599Z,101556.31
2023-02-06T09:02:08.664Z,101548.69
2023-02-06T09:04:37.883Z,101549.50
2023-02-06T09:07:06.753Z,101552.88
2023-02-06T09:09:35.472Z,101536.81
2023-02-06T09:12:04.429Z,101551.19
2023-02-06T09:14:35.482Z,101542.72
2023-02-06T09:17:04.288Z,101539.34
2023-02-06T09:19:32.932Z,101534.25
2023-02-06T09:22:01.586Z,101546.06
2023-02-06T09:24:32.216Z,101552.81
2023-02-06T09:27:01.203Z,101558.75
2023-02-06T09:29:31.969Z,101562.97
2023-02-06T09:32:02.732Z,101565.47
2023-02-06T09:34:31.539Z,101565.47
2023-02-06T09:37:03.010Z,101563.78
2023-02-06T09:39:32.184Z,101571.38
2023-02-06T09:42:07.204Z,101557.84
2023-02-06T09:44:40.611Z,101562.03
2023-02-06T09:47:21.434Z,101555.22
2023-02-06T09:49:53.105Z,101542.50
2023-02-06T09:52:54.626Z,101530.63
2023-02-06T09:55:33.419Z,101526.38
2023-02-06T09:58:23.280Z,101529.75
2023-02-06T10:01:01.242Z,101528.88
2023-02-06T10:03:50.363Z,101529.72
2023-02-06T10:06:22.908Z,101527.16
2023-02-06T10:09:01.231Z,101522.03
2023-02-06T10:11:48.543Z,101531.34
2023-02-06T10:14:24.298Z,101533.00
2023-02-06T10:16:58.980Z,101518.59
2023-02-06T10:19:41.074Z,101515.16
2023-02-06T10:22:16.656Z,101515.13
2023-02-06T10:24:55.146Z,101510.88
2023-02-06T10:27:23.773Z,101500.69
2023-02-06T10:29:52.391Z,101497.28
2023-02-06T10:32:40.581Z,101497.28
2023-02-06T10:35:40.822Z,101498.97
2023-02-06T10:38:35.115Z,101497.22
2023-02-06T10:41:10.514Z,101494.69
2023-02-06T10:43:51.562Z,101497.19
2023-02-06T10:46:43.266Z,101495.50
2023-02-06T10:49:24.338Z,101484.50
2023-02-06T10:51:58.582Z,101482.75
2023-02-06T10:54:33.025Z,101474.25
2023-02-06T10:57:03.358Z,101473.41
2023-02-06T10:59:36.564Z,101480.94
2023-02-06T11:02:24.501Z,101470.69
2023-02-06T11:05:00.129Z,101459.66
2023-02-06T11:07:34.719Z,101465.59
2023-02-06T11:10:03.520Z,101462.16
2023-02-06T11:12:37.794Z,101458.75
2023-02-06T11:15:19.627Z,101451.97
2023-02-06T11:17:48.716Z,101465.53
2023-02-06T11:20:22.032Z,101451.97
2023-02-06T11:22:53.766Z,101448.59
2023-02-06T11:25:33.716Z,101444.38
2023-02-06T11:28:02.724Z,101435.03
2023-02-06T11:30:35.978Z,101431.66
2023-02-06T11:33:07.883Z,101429.94
2023-02-06T11:35:41.249Z,101430.84
2023-02-06T11:38:20.303Z,101430.88
2023-02-06T11:41:00.691Z,101435.13
2023-02-06T11:43:33.784Z,101440.28
2023-02-06T11:46:18.325Z,101442.03
2023-02-06T11:48:49.166Z,101446.28
2023-02-06T11:51:17.861Z,101436.16
2023-02-06T11:53:59.623Z,101441.25
2023-02-06T11:56:30.126Z,101441.28
2023-02-06T11:59:08.800Z,101433.69
2023-02-06T12:01:45.888Z,101427.69
2023-02-06T12:04:24.106Z,101416.69
2023-02-06T12:07:04.188Z,101405.69
2023-02-06T12:09:34.530Z,101398.03
2023-02-06T12:12:17.681Z,101390.34
2023-02-06T12:14:53.689Z,101397.09
2023-02-06T12:17:32.824Z,101406.38
2023-02-06T12:20:08.635Z,101394.50
2023-02-06T12:22:44.139Z,101391.09
2023-02-06T12:25:37.275Z,101381.78
2023-02-06T12:28:13.134Z,101376.66
2023-02-06T12:30:51.213Z,101378.31
2023-02-06T12:33:25.635Z,101396.91
2023-02-06T12:35:59.599Z,101393.53
2023-02-06T12:38:42.241Z,101390.09
2023-02-06T12:41:36.106Z,101392.63
2023-02-06T12:44:17.639Z,101394.34
2023-02-06T12:46:54.486Z,101386.75
2023-02-06T12:49:28.294Z,101385.06
2023-02-06T12:52:04.814Z,101369.81
2023-02-06T12:54:38.950Z,101373.25
2023-02-06T12:57:17.469Z,101360.59
2023-02-06T13:00:31.190Z,101367.34
2023-02-06T13:03:22.786Z,101362.34
2023-02-06T13:05:56.108Z,101361.44
2023-02-06T13:08:29.899Z,101363.16
2023-02-06T13:11:09.424Z,101357.25
2023-02-06T13:13:41.954Z,101346.19
2023-02-06T13:16:11.500Z,101345.34
2023-02-06T13:18:54.221Z,101353.81
2023-02-06T13:21:29.219Z,101337.69
2023-02-06T13:24:19.667Z,101338.53
2023-02-06T13:27:16.165Z,101357.19
2023-02-06T13:29:47.690Z,101359.72
2023-02-06T13:32:41.960Z,101347.00
2023-02-06T13:35:26.400Z,101336.78
2023-02-06T13:38:28.518Z,101358.72
2023-02-06T13:41:37.514Z,101338.41
2023-02-06T13:44:17.093Z,101333.31
2023-02-06T13:47:21.894Z,101325.72
2023-02-06T13:50:28.933Z,101327.41
2023-02-06T13:53:23.186Z,101328.28
2023-02-06T13:56:16.632Z,101325.75
2023-02-06T13:58:52.892Z,101326.63
2023-02-06T14:01:26.983Z,101338.47
2023-02-06T14:03:57.738Z,101335.94
2023-02-06T14:06:57.761Z,101335.97
2023-02-06T14:10:08.630Z,101339.38
2023-02-06T14:12:56.984Z,101345.34
2023-02-06T14:15:34.863Z,101334.38
2023-02-06T14:18:27.019Z,101337.81
2023-02-06T14:21:13.039Z,101346.25
2023-02-06T14:24:11.452Z,101347.94
2023-02-06T14:26:51.338Z,101338.56
2023-02-06T14:29:32.053Z,101339.41
2023-02-06T14:32:33.533Z,101332.56
2023-02-06T14:35:36.074Z,101332.56
2023-02-06T14:38:47.606Z,101330.03
2023-02-06T14:41:17.679Z,101330.84
2023-02-06T14:43:48.806Z,101327.44
2023-02-06T14:46:19.644Z,101330.00
2023-02-06T14:48:51.900Z,101337.66
2023-02-06T14:51:26.830Z,101326.66
2023-02-06T14:54:00.358Z,101323.28
2023-02-06T14:56:32.105Z,101321.63
2023-02-06T14:59:16.614Z,101333.50
2023-02-06T15:01:49.145Z,101322.47
2023-02-06T15:04:22.266Z,101332.59
2023-02-06T15:06:56.291Z,101334.28
2023-02-06T15:09:29.963Z,101322.41
2023-02-06T15:12:00.896Z,101316.41
2023-02-06T15:14:32.176Z,101316.38
2023-02-06T15:17:02.817Z,101309.59
2023-02-06T15:19:35.556Z,101311.28
2023-02-06T15:22:07.710Z,101314.69
2023-02-06T15:25:24.409Z,101303.69
2023-02-06T15:28:02.658Z,101302.91
2023-02-06T15:30:33.648Z,101304.63
2023-02-06T15:33:02.728Z,101303.00
2023-02-06T15:35:35.454Z,101300.47
2023-02-06T15:38:07.267Z,101302.13
2023-02-06T15:40:42.249Z,101299.56
2023-02-06T15:43:17.192Z,101299.53
2023-02-06T15:45:46.433Z,101303.75
2023-02-06T15:48:21.266Z,101304.56
2023-02-06T15:51:02.005Z,101305.41
2023-02-06T15:53:37.386Z,101307.09
2023-02-06T15:56:11.000Z,101312.16
2023-02-06T15:58:39.725Z,101305.38
2023-02-06T16:01:18.060Z,101312.97
2023-02-06T16:03:48.358Z,101307.84
2023-02-06T16:06:18.696Z,101317.09
2023-02-06T16:08:53.011Z,101315.44
2023-02-06T16:11:48.270Z,101314.56
2023-02-06T16:14:32.877Z,101320.50
2023-02-06T16:17:06.639Z,101325.63
2023-02-06T16:19:46.626Z,101322.25
2023-02-06T16:22:24.993Z,101325.63
2023-02-06T16:24:55.915Z,101327.31
2023-02-06T16:27:28.881Z,101327.31
2023-02-06T16:29:58.764Z,101323.09
2023-02-06T16:32:31.795Z,101338.34
2023-02-06T16:35:01.637Z,101342.63
2023-02-06T16:37:32.133Z,101335.00
2023-02-06T16:40:00.768Z,101343.44
2023-02-06T16:42:38.075Z,101335.88
2023-02-06T16:45:11.239Z,101324.88
2023-02-06T16:47:39.905Z,101335.00
2023-02-06T16:50:10.544Z,101350.25
2023-02-06T16:52:42.650Z,101356.16
2023-02-06T16:55:22.244Z,101348.59
2023-02-06T16:57:55.400Z,101353.72
2023-02-06T17:00:30.144Z,101348.63
2023-02-06T17:03:00.342Z,101354.53
2023-02-06T17:05:31.639Z,101361.34
2023-02-06T17:08:01.674Z,101364.72
2023-02-06T17:10:30.410Z,101352.00
2023-02-06T17:13:00.389Z,101366.41
2023-02-06T17:15:29.225Z,101374.03
2023-02-06T17:17:57.962Z,101370.69
2023-02-06T17:20:36.028Z,101378.31
2023-02-06T17:23:05.298Z,101370.72
2023-02-06T17:25:34.335Z,101369.06
2023-02-06T17:28:07.003Z,101374.16
2023-02-06T17:30:38.065Z,101379.22
2023-02-06T17:33:08.054Z,101375.03
2023-02-06T17:35:38.118Z,101375.09
2023-02-06T17:38:07.838Z,101369.19
2023-02-06T17:40:38.268Z,101363.31
2023-02-06T17:43:08.691Z,101347.31
2023-02-06T17:45:39.913Z,101350.72
2023-02-06T17:48:09.112Z,101348.22
2023-02-06T17:50:38.760Z,101347.41
2023-02-06T17:53:10.325Z,101347.41
2023-02-06T17:55:39.023Z,101348.28
2023-02-06T17:58:09.776Z,101338.13
2023-02-06T18:00:38.869Z,101344.94
2023-02-06T18:03:07.786Z,101334.81
2023-02-06T18:05:37.557Z,101341.56
2023-02-06T18:08:06.475Z,101330.63
2023-02-06T18:10:35.525Z,101332.31
2023-02-06T18:13:04.306Z,101331.47
2023-02-06T18:15:34.491Z,101323.84
2023-02-06T18:18:04.827Z,101328.09
2023-02-06T18:20:33.644Z,101322.16
2023-02-06T18:23:02.432Z,101317.94
2023-02-06T18:25:31.080Z,101314.56
2023-02-06T18:27:59.722Z,101321.31
2023-02-06T18:30:28.543Z,101322.16
2023-02-06T18:32:58.610Z,101324.69
2023-02-06T18:35:27.536Z,101325.53
2023-02-06T18:37:56.477Z,101326.41
2023-02-06T18:40:25.110Z,101328.94
2023-02-06T18:42:54.019Z,101330.66
2023-02-06T18:45:31.210Z,101332.41
2023-02-06T18:48:02.047Z,101333.28
2023-02-06T18:50:31.192Z,101335.84
2023-02-06T18:52:59.878Z,101340.97
2023-02-06T18:55:28.847Z,101334.19
2023-02-06T18:57:57.540Z,101337.59
2023-02-06T19:00:26.621Z,101336.81
2023-02-06T19:02:56.046Z,101340.19
2023-02-06T19:05:26.212Z,101351.22
2023-02-06T19:07:55.186Z,101347.88
2023-02-06T19:10:25.860Z,101344.50
2023-02-06T19:12:54.465Z,101336.06
2023-02-06T19:15:23.384Z,101333.53
2023-02-06T19:17:52.549Z,101345.41
2023-02-06T19:20:21.483Z,101342.06
2023-02-06T19:22:53.616Z,101350.47
2023-02-06T19:25:22.445Z,101363.19
2023-02-06T19:27:51.129Z,101374.22
2023-02-06T19:30:20.016Z,101366.59
2023-02-06T19:32:51.536Z,101368.34
2023-02-06T19:35:20.482Z,101375.94
2023-02-06T19:37:51.841Z,101372.59
2023-02-06T19:40:20.708Z,101373.44
2023-02-06T19:42:49.376Z,101374.28
2023-02-06T19:45:18.175Z,101366.72
2023-02-06T19:47:46.822Z,101373.44
2023-02-06T19:50:15.706Z,101370.09
2023-02-06T19:52:44.445Z,101375.22
2023-02-06T19:55:14.514Z,101391.25
2023-02-06T19:57:43.482Z,101380.25
2023-02-06T20:00:13.727Z,101381.09
2023-02-06T20:02:42.448Z,101370.94
2023-02-06T20:05:11.427Z,101381.13
2023-02-06T20:07:40.073Z,101389.56
2023-02-06T20:10:09.278Z,101389.59
2023-02-06T20:12:39.371Z,101387.09
2023-02-06T20:15:09.153Z,101392.19
2023-02-06T20:17:37.833Z,101396.44
2023-02-06T20:20:07.961Z,101393.91
2023-02-06T20:22:36.692Z,101383.78
2023-02-06T20:25:05.762Z,101389.75
2023-02-06T20:27:34.476Z,101388.91
2023-02-06T20:30:05.336Z,101396.56
2023-02-06T20:32:34.067Z,101391.47
2023-02-06T20:35:03.258Z,101383.03
2023-02-06T20:37:31.914Z,101372.91
2023-02-06T20:40:01.136Z,101386.53
2023-02-06T20:42:32.004Z,101382.34
2023-02-06T20:45:00.622Z,101376.44
2023-02-06T20:47:31.003Z,101371.41
2023-02-06T20:50:00.503Z,101384.09
2023-02-06T20:52:29.608Z,101384.91
2023-02-06T20:54:58.284Z,101400.13
2023-02-06T20:57:27.174Z,101389.19
2023-02-06T20:59:55.872Z,101380.72
2023-02-06T21:02:24.552Z,101391.75
2023-02-06T21:04:55.384Z,101395.13
2023-02-06T21:07:23.990Z,101384.09
2023-02-06T21:09:52.643Z,101379.06
2023-02-06T21:12:21.247Z,101379.09
2023-02-06T21:14:50.144Z,101371.50
2023-02-06T21:17:18.732Z,101377.44
2023-02-06T21:19:47.387Z,101390.13
2023-02-06T21:22:17.367Z,101385.91
2023-02-06T21:24:46.024Z,101374.13
2023-02-06T21:27:14.652Z,101367.41
2023-02-06T21:29:43.267Z,101374.13
2023-02-06T21:32:14.203Z,101378.38
2023-02-06T21:34:44.047Z,101400.38
2023-02-06T21:37:12.751Z,101381.75
2023-02-06T21:39:43.454Z,101386.84
2023-02-06T21:42:12.620Z,101386.03
2023-02-06T21:44:41.392Z,101377.56
2023-02-06T21:47:10.445Z,101376.69
2023-02-06T21:49:39.373Z,101378.38
2023-02-06T21:52:08.034Z,101376.69
2023-02-06T21:54:36.780Z,101375.81
2023-02-06T21:57:06.887Z,101366.50
2023-02-06T21:59:37.931Z,101372.38
2023-02-06T22:02:06.620Z,101379.97
2023-02-06T22:04:35.330Z,101382.47
2023-02-06T22:07:04.021Z,101370.63
2023-02-06T22:09:32.890Z,101371.44
2023-02-06T22:12:02.753Z,101376.50
2023-02-06T22:14:32.913Z,101369.78
2023-02-06T22:17:01.712Z,101376.53
2023-02-06T22:19:30.448Z,101369.78
2023-02-06T22:21:59.128Z,101376.53
2023-02-06T22:24:27.824Z,101375.69
2023-02-06T22:26:56.546Z,101374.88
2023-02-06T22:29:25.198Z,101378.22
2023-02-06T22:31:55.200Z,101385.84
2023-02-06T22:34:23.792Z,101385.00
2023-02-06T22:36:52.635Z,101382.44
2023-02-06T22:39:21.587Z,101384.97
2023-02-06T22:41:51.012Z,101374.81
2023-02-06T22:44:21.760Z,101381.56
2023-02-06T22:46:53.079Z,101394.22
2023-02-06T22:49:24.571Z,101379.00
2023-02-06T22:51:53.349Z,101381.56
2023-02-06T22:54:21.974Z,101380.72
2023-02-06T22:56:50.901Z,101381.56
2023-02-06T22:59:22.661Z,101380.72
2023-02-06T23:01:54.306Z,101372.31
2023-02-06T23:04:28.747Z,101373.97
2023-02-06T23:06:58.195Z,101377.41
2023-02-06T23:09:33.393Z,101373.19
2023-02-06T23:12:02.797Z,101371.56
2023-02-06T23:14:33.903Z,101371.56
2023-02-06T23:17:04.007Z,101369.03
2023-02-06T23:19:35.921Z,101380.91
2023-02-06T23:22:04.579Z,101379.22
2023-02-06T23:24:33.488Z,101384.28
2023-02-06T23:27:02.173Z,101401.19
2023-02-06T23:29:30.870Z,101387.66
2023-02-06T23:31:59.526Z,101377.50
2023-02-06T23:34:28.158Z,101385.09
2023-02-06T23:36:58.166Z,101388.44
2023-02-06T23:39:26.766Z,101392.66
2023-02-06T23:41:55.440Z,101391.81
2023-02-06T23:44:24.105Z,101396.94
2023-02-06T23:46:52.812Z,101404.53
2023-02-06T23:49:21.528Z,101402.03
2023-02-06T23:51:50.189Z,101398.66
2023-02-06T23:54:20.215Z,101395.31
2023-02-06T23:56:48.962Z,101385.19
2023-02-06T23:59:17.634Z,101385.25
